Delray Beach, FL

11:13 AM EDT on October 24, 2014 (GMT -0400)
Palm Beach International | Change Station
CLOSE
Current Station
Airport
Location: West Palm Beach,
Elevation: 20 ft
Nearby Weather Stations
Active Advisory: Coastal Hazard Statement

Elev 20 ft 26.68 °N, 80.10 °W | Updated 20 minutes ago

Mostly Cloudy
Mostly Cloudy
79 °F
Feels Like 79 °F
N
17
Wind Variable Wind from NE

Today
High -- | Low -- °F
--% Chance of Precip.
Yesterday
High -- | Low -- °F
Precip. -- in
7:24 AM 6:44 PM
New Moon, 1% visible
Pressure 29.92 in
Visibility 10.0 miles
Clouds Few 2900 ft
Mostly Cloudy 3400 ft
Mostly Cloudy 4200 ft
Dew Point 67 °F
Humidity 66%
Rainfall 0.00 in
Snow Depth Not available.
UV 3 out of 12
Pollen 2.30 out of 12
Ozone Good
PM2.5 Good
Flu Activity Local Activity
METAR KPBI 241453Z 05015KT 10SM FEW029 BKN034 BKN042 26/19 A2992 RMK AO2 SLP131 T02610194 51016 $

More Conditions Fewer Conditions

Pressure 29.92 in
Visibility 10.0 miles
Clouds Few 2900 ft
Mostly Cloudy 3400 ft
Mostly Cloudy 4200 ft
Dew Point 67 °F
Humidity 66%
Rainfall 0.00 in
Snow Depth Not available.
UV 3 out of 12
Pollen 2.30 out of 12
Ozone Good
PM2.5 Good
Flu Activity Local Activity
METAR KPBI 241453Z 05015KT 10SM FEW029 BKN034 BKN042 26/19 A2992 RMK AO2 SLP131 T02610194 51016 $

More Conditions Fewer Conditions

10-Day Weather Forecast

Almanac

Astronomy

Oct. 24, 2014 Rise Set
Actual Time 7:24 AM EDT 6:44 PM EDT
Civil Twilight 7:00 AM EDT 7:07 PM EDT
Nautical Twilight 6:33 AM EDT 7:34 PM EDT
Astronomical Twilight 6:06 AM EDT 8:01 PM EDT
Moon 7:59 AM EDT 7:27 PM EDT
Length of Visible Light 12h 06m
Length of Day
11h 19m
Tomorrow will be 1m 25s shorter.
New Moon, 1% of the Moon is Illuminated
Today
New Moon
Oct 30
First Quarter
Nov 6
Full
Nov 14
Last Quarter
Nov 22
New

Today's Extremes

State Highs State Lows

Community

WunderPhotos

Upload Photos

1,764,587 photos uploaded!

WunderBlogs® & News

Nearby

Air Quality

  Air Quality AQ Index Pollutant
Yesterday Good
OZONE
Yesterday Good
PM2.5
Current Good
OZONE
Current Good
PM2.5
Friday Good
OZONE
Friday Good
PM2.5
Saturday Good
OZONE
Saturday Good
PM2.5
Sunday Good
OZONE
Sunday Good
PM2.5
Monday Good
OZONE
Monday Good
PM2.5

Snow Depth

Station Depth Elevation
No new snow has been reported.

Earthquake Activity

City Distance Mag. Time & Date
No recent earthquake activity has been reported nearby.
Minimum magnitude displayed is 2.5.

Coastal Water Temperatures

Place Temperature
Lake Worth, FL 80.1 °F
Virginia Key, FL 80.1 °F

Nearby Weather Stations